Time;durP1;ratioP1;P1;durP2;ratioP2;P2;SDS_P1;SDS_P2;PMS_P1;PMS_P2;Temp;Humidity;BMP_temperature;BMP_pressure;BME280_temperature;BME280_humidity;BME280_pressure;Samples;Min_cycle;Max_cycle;Signal;HPM_P1;HPM_P2
2023/07/03 00:00:57;;;;;;;6.70;2.50;;;;;;;26.17;54.87;98372.91;2062382;28;20041;-48
2023/07/03 00:02:00;;;;;;;4.68;2.63;;;;;;;26.20;54.60;98373.19;2063795;28;20053;-49
2023/07/03 00:03:02;;;;;;;5.28;2.85;;;;;;;26.24;54.45;98376.19;2064776;28;20077;-51
2023/07/03 00:04:10;;;;;;;3.65;2.60;;;;;;;26.26;54.50;98371.34;2063376;28;20050;-53
2023/07/03 00:05:11;;;;;;;6.72;2.45;;;;;;;26.22;54.63;98372.94;2061501;28;20938;-52
2023/07/03 00:06:13;;;;;;;6.75;3.65;;;;;;;26.23;54.71;98371.84;2062213;28;20045;-51
2023/07/03 00:07:14;;;;;;;3.75;2.22;;;;;;;26.25;54.82;98375.97;2061529;28;20080;-52
2023/07/03 00:08:17;;;;;;;5.70;3.17;;;;;;;26.27;54.74;98371.09;2062375;28;20133;-52
2023/07/03 00:09:18;;;;;;;4.05;2.88;;;;;;;26.25;54.69;98369.72;2058168;28;20128;-46
2023/07/03 00:10:21;;;;;;;4.55;2.67;;;;;;;26.22;54.73;98365.59;2062882;28;20050;-52
2023/07/03 00:11:22;;;;;;;5.68;2.65;;;;;;;26.18;54.87;98371.81;2061414;28;20077;-52
2023/07/03 00:12:24;;;;;;;4.72;2.58;;;;;;;26.16;55.27;98363.09;2061743;28;20042;-53
2023/07/03 00:13:25;;;;;;;5.97;2.28;;;;;;;26.15;55.00;98370.44;2059949;28;20061;-54
2023/07/03 00:14:27;;;;;;;3.97;2.42;;;;;;;26.13;55.13;98360.88;2062326;28;20046;-52
2023/07/03 00:15:27;;;;;;;3.03;2.47;;;;;;;26.13;55.00;98374.47;2063601;28;20057;-52
2023/07/03 00:16:29;;;;;;;6.75;2.45;;;;;;;26.07;55.40;98369.00;2064793;28;20054;-48
2023/07/03 00:17:30;;;;;;;3.65;2.63;;;;;;;26.01;55.47;98377.38;2061910;28;20054;-54
2023/07/03 00:18:32;;;;;;;4.43;2.58;;;;;;;25.92;55.65;98371.59;2061763;28;20049;-54
2023/07/03 00:19:35;;;;;;;4.45;2.47;;;;;;;25.86;55.69;98369.91;2060774;28;20054;-48
2023/07/03 00:20:38;;;;;;;5.53;3.00;;;;;;;25.77;56.17;98366.81;2059787;28;20053;-54
2023/07/03 00:21:43;;;;;;;5.53;2.63;;;;;;;25.87;56.10;98368.84;2061431;28;20045;-49
2023/07/03 00:22:46;;;;;;;5.45;1.95;;;;;;;25.97;55.72;98368.94;2062516;28;20057;-54
2023/07/03 00:23:47;;;;;;;7.88;2.80;;;;;;;26.06;55.28;98361.94;2062475;28;20053;-52
2023/07/03 00:24:49;;;;;;;4.30;2.60;;;;;;;26.10;54.99;98356.78;2061836;28;20085;-52
2023/07/03 00:25:49;;;;;;;5.80;2.95;;;;;;;26.13;55.29;98361.72;2060817;28;20057;-53
2023/07/03 00:26:51;;;;;;;4.10;2.67;;;;;;;26.17;54.70;98362.03;2062433;28;20056;-50
2023/07/03 00:27:53;;;;;;;4.63;2.40;;;;;;;26.17;55.27;98364.75;2058502;28;20054;-51
2023/07/03 00:28:55;;;;;;;5.28;2.50;;;;;;;26.12;54.85;98359.25;2060040;28;20108;-53
2023/07/03 00:29:56;;;;;;;5.53;2.55;;;;;;;26.01;55.54;98355.63;2062699;28;20054;-51
2023/07/03 00:30:58;;;;;;;3.95;2.70;;;;;;;25.94;55.82;98352.34;2061915;28;20751;-49
2023/07/03 00:32:00;;;;;;;5.22;2.53;;;;;;;26.02;55.30;98354.56;2062998;28;20069;-55
2023/07/03 00:33:01;;;;;;;7.28;3.10;;;;;;;26.06;55.00;98342.09;2062877;28;20476;-52
2023/07/03 00:34:02;;;;;;;8.57;2.50;;;;;;;26.12;55.30;98348.41;2053873;28;20061;-50
2023/07/03 00:35:07;;;;;;;6.68;2.53;;;;;;;26.19;54.68;98349.00;2060210;28;20145;-48
2023/07/03 00:36:09;;;;;;;8.00;2.75;;;;;;;26.18;54.82;98347.34;2060770;28;20077;-52
2023/07/03 00:37:11;;;;;;;4.03;2.45;;;;;;;26.19;54.75;98347.09;2062682;28;20056;-53
2023/07/03 00:38:12;;;;;;;4.40;2.55;;;;;;;26.20;55.01;98346.00;2061712;28;20058;-53
2023/07/03 00:39:14;;;;;;;3.00;2.53;;;;;;;26.22;54.93;98353.91;2063131;28;20424;-50
2023/07/03 00:40:15;;;;;;;6.65;2.80;;;;;;;26.24;54.47;98351.75;2060373;28;20046;-52
2023/07/03 00:41:17;;;;;;;5.70;2.85;;;;;;;26.24;54.94;98354.44;2061140;28;20488;-52
2023/07/03 00:42:18;;;;;;;3.40;2.40;;;;;;;26.12;55.36;98357.34;2059546;28;20054;-46
2023/07/03 00:43:19;;;;;;;5.65;3.03;;;;;;;26.00;55.19;98354.81;2059967;28;20133;-51
2023/07/03 00:44:20;;;;;;;6.07;2.70;;;;;;;25.87;55.78;98355.25;2063410;28;20655;-49
2023/07/03 00:45:22;;;;;;;4.43;2.85;;;;;;;25.84;55.80;98356.56;2062962;28;20058;-46
2023/07/03 00:46:24;;;;;;;6.22;2.90;;;;;;;25.83;56.02;98362.28;2060620;28;20078;-49
2023/07/03 00:47:26;;;;;;;4.90;2.72;;;;;;;25.78;56.08;98362.19;2064000;28;20423;-53
2023/07/03 00:48:27;;;;;;;4.43;2.65;;;;;;;25.76;56.17;98357.00;2047983;28;20916;-51
2023/07/03 00:49:30;;;;;;;5.18;3.00;;;;;;;25.72;56.61;98355.91;2061159;28;20136;-52
2023/07/03 00:50:34;;;;;;;4.40;2.95;;;;;;;25.71;56.68;98369.72;2061625;28;20041;-50
2023/07/03 00:51:36;;;;;;;5.28;3.20;;;;;;;25.64;56.75;98359.91;2061864;28;20058;-53
2023/07/03 00:52:38;;;;;;;9.65;3.35;;;;;;;25.66;56.38;98362.38;2063056;28;20052;-52
2023/07/03 00:53:40;;;;;;;5.75;3.05;;;;;;;25.68;56.65;98368.34;2062542;28;20057;-51
2023/07/03 00:54:41;;;;;;;4.35;2.42;;;;;;;25.67;56.52;98366.72;2061873;28;20602;-55
2023/07/03 00:55:43;;;;;;;9.13;2.95;;;;;;;25.69;56.31;98367.28;2061879;28;20508;-53
2023/07/03 00:56:44;;;;;;;5.72;2.90;;;;;;;25.71;56.41;98356.97;2063686;28;20054;-52
2023/07/03 00:57:46;;;;;;;5.32;2.75;;;;;;;25.70;56.64;98360.75;2060437;28;20053;-53
2023/07/03 00:58:47;;;;;;;5.95;3.30;;;;;;;25.69;56.39;98358.31;2064383;28;20725;-52
2023/07/03 00:59:49;;;;;;;5.65;2.70;;;;;;;25.64;56.46;98354.47;2059545;28;20046;-48
2023/07/03 01:00:56;;;;;;;5.68;2.88;;;;;;;25.66;56.49;98359.66;2061396;28;20054;-54
2023/07/03 01:02:08;;;;;;;5.03;2.83;;;;;;;25.61;56.77;98360.41;2063415;28;20666;-56
2023/07/03 01:03:16;;;;;;;6.55;3.10;;;;;;;25.63;56.90;98368.28;2062403;28;20760;-49
2023/07/03 01:04:24;;;;;;;4.43;2.88;;;;;;;25.61;56.96;98363.13;2061381;28;20129;-55
2023/07/03 01:05:29;;;;;;;5.85;2.95;;;;;;;25.55;57.32;98361.44;2059493;28;20133;-49
2023/07/03 01:06:40;;;;;;;5.93;2.72;;;;;;;25.57;56.84;98361.16;2061677;28;20046;-51
2023/07/03 01:07:41;;;;;;;;;;;;;;;25.44;57.59;98367.84;2060318;28;20080;-49
2023/07/03 01:08:45;;;;;;;5.60;2.80;;;;;;;25.45;57.29;98358.59;2062149;28;19936;-51
2023/07/03 01:09:49;;;;;;;9.52;3.53;;;;;;;25.48;57.11;98360.00;2063166;28;20077;-52
2023/07/03 01:10:51;;;;;;;7.07;3.42;;;;;;;25.49;57.14;98359.75;2060881;28;20050;-49
2023/07/03 01:11:54;;;;;;;6.93;3.05;;;;;;;25.52;57.02;98359.25;2062530;28;20057;-52
2023/07/03 01:13:01;;;;;;;7.60;3.30;;;;;;;25.55;57.38;98360.63;2062241;28;20057;-53
2023/07/03 01:14:04;;;;;;;4.47;3.10;;;;;;;25.54;57.41;98361.69;2062274;28;20108;-54
2023/07/03 01:15:09;;;;;;;7.78;3.95;;;;;;;25.58;57.10;98362.81;2060974;28;20140;-48
2023/07/03 01:16:11;;;;;;;5.28;2.67;;;;;;;25.56;57.32;98362.25;2057646;28;20049;-52
2023/07/03 01:17:15;;;;;;;7.25;2.50;;;;;;;25.56;57.34;98365.78;2059440;28;20402;-50
2023/07/03 01:18:17;;;;;;;6.13;2.80;;;;;;;25.56;56.83;98363.06;2052038;28;20053;-49
2023/07/03 01:19:29;;;;;;;6.88;3.45;;;;;;;25.57;56.99;98359.25;2059267;28;20050;-51
2023/07/03 01:20:34;;;;;;;2.85;2.50;;;;;;;25.53;57.04;98358.16;2060652;28;20045;-50
2023/07/03 01:21:44;;;;;;;4.82;2.08;;;;;;;25.52;57.28;98364.66;2063070;28;20123;-50
2023/07/03 01:22:51;;;;;;;4.38;3.38;;;;;;;25.53;57.16;98358.16;2062390;28;20069;-48
2023/07/03 01:23:58;;;;;;;4.93;2.35;;;;;;;25.58;57.05;98366.34;2060615;28;20544;-49
2023/07/03 01:25:06;;;;;;;6.35;3.10;;;;;;;25.58;56.94;98362.81;2062757;28;20527;-50
2023/07/03 01:26:10;;;;;;;4.65;2.45;;;;;;;25.57;56.73;98366.59;2062415;28;20413;-49
2023/07/03 01:27:14;;;;;;;6.05;3.08;;;;;;;25.57;56.80;98370.13;2060841;28;20061;-48
2023/07/03 01:28:19;;;;;;;5.88;2.88;;;;;;;25.58;56.95;98360.94;2065802;28;20046;-58
2023/07/03 01:29:20;;;;;;;4.03;2.72;;;;;;;25.57;56.75;98361.97;2064319;28;20136;-51
2023/07/03 01:30:24;;;;;;;4.10;2.90;;;;;;;25.54;57.29;98362.50;2064507;28;20092;-51
2023/07/03 01:31:27;;;;;;;11.38;3.30;;;;;;;25.55;57.26;98358.72;2064783;28;20060;-46
2023/07/03 01:32:32;;;;;;;7.80;2.90;;;;;;;25.56;56.72;98365.78;2059083;28;21052;-49
2023/07/03 01:33:35;;;;;;;5.63;2.50;;;;;;;25.59;57.28;98364.47;2061217;28;20060;-49
2023/07/03 01:34:38;;;;;;;6.28;2.75;;;;;;;25.58;57.11;98366.34;2063557;28;20401;-48
2023/07/03 01:35:40;;;;;;;6.43;2.67;;;;;;;25.59;57.13;98359.84;2060788;28;20112;-50
2023/07/03 01:36:43;;;;;;;4.95;2.67;;;;;;;25.63;56.60;98358.28;2061675;28;20046;-46
2023/07/03 01:37:46;;;;;;;7.45;2.92;;;;;;;25.61;56.96;98360.41;2063021;28;20401;-50
2023/07/03 01:38:50;;;;;;;3.85;2.58;;;;;;;25.62;57.00;98361.22;2062705;28;20133;-47
2023/07/03 01:39:53;;;;;;;4.53;3.05;;;;;;;25.61;57.18;98359.59;2061653;28;20085;-48
2023/07/03 01:40:58;;;;;;;10.13;3.08;;;;;;;25.61;56.84;98357.69;2061967;28;20054;-50
2023/07/03 01:41:59;;;;;;;6.22;3.20;;;;;;;25.60;56.81;98361.50;2063079;28;20065;-48
2023/07/03 01:43:03;;;;;;;6.75;2.80;;;;;;;25.56;57.28;98362.25;2062269;28;20045;-47
2023/07/03 01:44:04;;;;;;;3.80;2.58;;;;;;;25.56;56.92;98360.34;2055362;28;20119;-47
2023/07/03 01:45:07;;;;;;;7.82;2.90;;;;;;;25.60;57.07;98366.94;2065375;28;20427;-52
2023/07/03 01:46:10;;;;;;;4.93;2.42;;;;;;;25.64;56.95;98365.31;2060874;28;20046;-56
2023/07/03 01:47:14;;;;;;;5.38;2.33;;;;;;;25.66;56.82;98362.38;2063186;28;20045;-55
2023/07/03 01:48:16;;;;;;;5.18;3.63;;;;;;;25.68;56.98;98360.19;2062558;28;20069;-56
2023/07/03 01:49:18;;;;;;;7.10;2.95;;;;;;;25.70;56.43;98360.75;2063822;28;20483;-48
2023/07/03 01:50:24;;;;;;;5.63;2.92;;;;;;;25.75;56.38;98362.72;2061186;28;20056;-51
2023/07/03 01:51:34;;;;;;;6.65;3.53;;;;;;;25.77;56.58;98365.97;2064643;28;20069;-50
2023/07/03 01:52:39;;;;;;;4.28;2.60;;;;;;;25.76;56.20;98362.44;2062143;28;20130;-51
2023/07/03 01:53:48;;;;;;;4.15;2.45;;;;;;;25.75;56.66;98365.44;2063575;28;20130;-54
2023/07/03 01:54:56;;;;;;;4.78;2.88;;;;;;;25.71;56.78;98358.84;2064647;28;20050;-49
2023/07/03 01:56:05;;;;;;;8.52;2.90;;;;;;;25.70;56.29;98368.09;2063946;28;20049;-56
2023/07/03 01:57:07;;;;;;;9.10;3.20;;;;;;;25.68;56.48;98368.34;2062645;28;20061;-53
2023/07/03 01:58:17;;;;;;;3.35;2.42;;;;;;;25.68;56.81;98371.06;2062336;28;20050;-54
2023/07/03 01:59:24;;;;;;;7.95;3.17;;;;;;;25.69;56.98;98377.34;2063204;28;20048;-51
2023/07/03 02:00:33;;;;;;;8.90;2.95;;;;;;;25.60;57.07;98375.06;2062526;28;20749;-52
2023/07/03 02:01:42;;;;;;;5.65;2.28;;;;;;;25.54;56.81;98376.06;2065745;28;20579;-50
2023/07/03 02:02:47;;;;;;;5.40;2.58;;;;;;;25.46;57.51;98387.38;2063395;28;20065;-52
2023/07/03 02:03:53;;;;;;;4.57;3.08;;;;;;;25.46;57.12;98379.25;2059956;28;20056;-53
2023/07/03 02:05:00;;;;;;;4.10;2.95;;;;;;;25.45;56.97;98380.31;2064020;28;20046;-50
2023/07/03 02:06:08;;;;;;;7.38;3.83;;;;;;;25.49;57.07;98367.06;2062568;28;20038;-50
2023/07/03 02:07:12;;;;;;;4.45;2.53;;;;;;;25.51;56.99;98370.34;2062824;28;20565;-54
2023/07/03 02:08:15;;;;;;;6.97;3.25;;;;;;;25.52;56.84;98366.53;2064141;28;20061;-53
2023/07/03 02:09:17;;;;;;;5.70;2.75;;;;;;;25.53;56.75;98369.00;2061615;28;20049;-53
2023/07/03 02:10:18;;;;;;;5.15;2.58;;;;;;;25.54;57.11;98370.63;2061842;28;20049;-47
2023/07/03 02:11:24;;;;;;;3.38;2.55;;;;;;;25.56;56.79;98368.50;2061646;28;21151;-51
2023/07/03 02:12:25;;;;;;;5.60;2.58;;;;;;;25.54;56.91;98373.34;2063712;28;20573;-52
2023/07/03 02:13:27;;;;;;;5.70;2.80;;;;;;;25.54;56.75;98375.25;2063338;28;20177;-51
2023/07/03 02:14:27;;;;;;;7.13;2.60;;;;;;;25.54;57.26;98369.81;2063589;28;21715;-46
2023/07/03 02:15:29;;;;;;;3.67;1.90;;;;;;;25.53;57.14;98369.00;2060183;28;20082;-53
2023/07/03 02:16:30;;;;;;;4.10;2.50;;;;;;;25.53;57.15;98374.44;2063495;28;20595;-52
2023/07/03 02:17:32;;;;;;;7.32;2.17;;;;;;;25.54;57.17;98369.81;2061334;28;20052;-50
2023/07/03 02:18:34;;;;;;;5.47;2.90;;;;;;;25.53;56.94;98369.00;2064307;28;21183;-53
2023/07/03 02:19:36;;;;;;;5.30;2.65;;;;;;;25.54;57.16;98367.94;2062597;28;20231;-50
2023/07/03 02:20:38;;;;;;;5.82;2.90;;;;;;;25.57;57.09;98370.13;2060852;28;20753;-51
2023/07/03 02:21:40;;;;;;;6.38;2.60;;;;;;;25.55;56.59;98364.16;2062608;28;20597;-48
2023/07/03 02:22:41;;;;;;;6.07;2.72;;;;;;;25.54;56.91;98365.22;2062278;28;20153;-49
2023/07/03 02:23:43;;;;;;;9.10;3.00;;;;;;;25.56;57.06;98360.34;2061280;28;20050;-49
2023/07/03 02:24:44;;;;;;;4.90;2.78;;;;;;;25.55;56.59;98358.72;2063593;28;20449;-48
2023/07/03 02:25:45;;;;;;;4.32;2.30;;;;;;;25.55;56.66;98353.28;2061164;28;20145;-48
2023/07/03 02:26:48;;;;;;;4.38;2.70;;;;;;;25.57;56.53;98355.72;2062813;28;20831;-48
2023/07/03 02:27:50;;;;;;;6.68;3.35;;;;;;;25.53;56.60;98349.19;2061384;28;20077;-48
2023/07/03 02:28:51;;;;;;;4.78;2.67;;;;;;;25.52;56.78;98345.66;2062153;28;20161;-48
2023/07/03 02:29:54;;;;;;;8.52;4.57;;;;;;;25.52;56.86;98344.81;2063952;28;20054;-51
2023/07/03 02:30:54;;;;;;;8.73;3.13;;;;;;;25.51;56.91;98345.91;2063771;28;20688;-49
2023/07/03 02:31:56;;;;;;;6.45;3.13;;;;;;;25.50;56.95;98342.38;2062908;28;20061;-48
2023/07/03 02:32:57;;;;;;;6.90;3.47;;;;;;;25.52;56.39;98345.66;2062326;28;20046;-47
2023/07/03 02:33:59;;;;;;;5.80;3.20;;;;;;;25.51;56.78;98343.19;2061968;28;20084;-48
2023/07/03 02:35:00;;;;;;;4.75;2.92;;;;;;;25.49;56.91;98346.19;2063711;28;20535;-48
2023/07/03 02:36:02;;;;;;;5.47;2.75;;;;;;;25.49;56.71;98346.19;2064006;28;20133;-50
2023/07/03 02:37:04;;;;;;;3.70;2.83;;;;;;;25.51;56.48;98348.63;2060554;28;20105;-49
2023/07/03 02:38:06;;;;;;;5.25;3.10;;;;;;;25.60;56.45;98347.91;2063706;28;20054;-50
2023/07/03 02:39:09;;;;;;;5.63;3.10;;;;;;;25.68;56.43;98345.78;2063854;28;20054;-49
2023/07/03 02:40:13;;;;;;;5.53;2.60;;;;;;;25.72;55.94;98349.66;2062435;28;20407;-54
2023/07/03 02:41:14;;;;;;;3.95;2.80;;;;;;;25.70;56.33;98343.66;2062297;28;20061;-53
2023/07/03 02:42:17;;;;;;;3.03;2.15;;;;;;;25.63;56.49;98349.28;2063020;28;20508;-52
2023/07/03 02:43:18;;;;;;;5.70;3.08;;;;;;;25.55;57.06;98349.75;2062612;28;20598;-48
2023/07/03 02:44:20;;;;;;;6.65;2.72;;;;;;;25.49;57.24;98351.59;2060807;28;20050;-47
2023/07/03 02:45:21;;;;;;;4.53;3.10;;;;;;;25.56;57.03;98349.50;2064012;28;20070;-48
2023/07/03 02:46:23;;;;;;;5.00;2.70;;;;;;;25.61;56.76;98349.53;2061465;28;20054;-49
2023/07/03 02:47:23;;;;;;;3.10;2.40;;;;;;;25.70;55.96;98346.38;2062982;28;20061;-47
2023/07/03 02:48:25;;;;;;;5.03;3.03;;;;;;;25.73;56.47;98351.28;2061347;28;21946;-51
2023/07/03 02:49:28;;;;;;;4.85;2.58;;;;;;;25.72;56.12;98350.47;2062597;28;20058;-53
2023/07/03 02:50:30;;;;;;;5.20;2.42;;;;;;;25.70;55.95;98352.63;2063838;28;20046;-51
2023/07/03 02:51:31;;;;;;;6.18;2.38;;;;;;;25.75;56.30;98349.13;2060392;28;20045;-52
2023/07/03 02:52:32;;;;;;;5.18;2.72;;;;;;;25.79;56.30;98350.25;2064352;28;20069;-53
2023/07/03 02:53:33;;;;;;;5.05;2.53;;;;;;;25.82;55.99;98347.00;2061928;28;20522;-52
2023/07/03 02:54:35;;;;;;;5.20;2.85;;;;;;;25.82;55.69;98341.59;2058665;28;20184;-47
2023/07/03 02:55:36;;;;;;;7.43;3.10;;;;;;;25.80;56.14;98343.75;2061574;28;20057;-48
2023/07/03 02:56:38;;;;;;;3.22;2.50;;;;;;;25.79;56.30;98344.81;2063792;28;20053;-49
2023/07/03 02:57:40;;;;;;;3.85;2.28;;;;;;;25.80;55.88;98341.03;2061763;28;20081;-52
2023/07/03 02:58:42;;;;;;;3.58;2.83;;;;;;;25.81;55.63;98342.66;2061523;28;20045;-49
2023/07/03 02:59:43;;;;;;;4.82;2.50;;;;;;;25.79;55.86;98339.38;2063076;28;20069;-48
2023/07/03 03:00:46;;;;;;;4.95;2.65;;;;;;;25.78;55.75;98345.91;2062098;28;20050;-55
2023/07/03 03:01:47;;;;;;;6.25;2.95;;;;;;;25.76;56.19;98339.91;2061921;28;20057;-50
2023/07/03 03:02:49;;;;;;;5.20;2.20;;;;;;;25.79;56.00;98342.09;2063454;28;20137;-46
2023/07/03 03:03:50;;;;;;;3.88;2.35;;;;;;;25.80;56.14;98343.75;2063629;28;20079;-48
2023/07/03 03:04:52;;;;;;;4.15;2.65;;;;;;;25.83;55.88;98348.69;2063574;28;20076;-48
2023/07/03 03:05:52;;;;;;;5.72;2.50;;;;;;;25.85;55.45;98351.97;2061120;28;20060;-49
2023/07/03 03:06:54;;;;;;;4.82;2.85;;;;;;;25.83;55.77;98348.69;2061928;28;20051;-49
2023/07/03 03:07:55;;;;;;;7.70;3.25;;;;;;;25.83;55.93;98351.41;2061979;28;20157;-53
2023/07/03 03:08:57;;;;;;;5.30;2.35;;;;;;;25.80;55.68;98357.34;2059706;28;20057;-55
2023/07/03 03:09:58;;;;;;;5.78;2.80;;;;;;;25.71;56.37;98343.38;2062890;28;20053;-50
2023/07/03 03:11:00;;;;;;;4.20;2.53;;;;;;;25.64;56.52;98348.22;2061625;28;20065;-55
2023/07/03 03:12:00;;;;;;;8.98;3.10;;;;;;;25.59;56.51;98346.25;2061025;28;20050;-53
2023/07/03 03:13:04;;;;;;;5.78;3.15;;;;;;;25.61;56.38;98346.00;2062280;28;20056;-54
2023/07/03 03:14:04;;;;;;;5.90;2.63;;;;;;;25.62;56.27;98350.38;2056986;28;20456;-53
2023/07/03 03:15:07;;;;;;;3.67;2.10;;;;;;;25.66;56.23;98342.50;2062024;28;20133;-53
2023/07/03 03:16:08;;;;;;;6.22;3.03;;;;;;;25.69;56.48;98345.56;2061782;28;20044;-49
2023/07/03 03:17:10;;;;;;;2.45;1.83;;;;;;;25.73;56.09;98346.66;2059963;28;20149;-49
2023/07/03 03:18:11;;;;;;;6.35;2.75;;;;;;;25.72;56.18;98349.66;2060821;28;20069;-48
2023/07/03 03:19:13;;;;;;;6.65;2.72;;;;;;;25.74;56.47;98352.91;2060807;28;20057;-53
2023/07/03 03:20:14;;;;;;;4.50;2.70;;;;;;;25.74;56.30;98347.47;2062284;28;20046;-53
2023/07/03 03:21:16;;;;;;;4.65;2.65;;;;;;;25.73;56.36;98351.28;2060508;28;20075;-54
2023/07/03 03:22:17;;;;;;;4.45;2.55;;;;;;;25.68;56.66;98352.03;2061717;28;20483;-53
2023/07/03 03:23:19;;;;;;;7.63;3.25;;;;;;;25.66;56.23;98353.38;2062082;28;20042;-51
2023/07/03 03:24:20;;;;;;;4.95;2.78;;;;;;;25.64;56.75;98348.22;2061800;28;20050;-55
2023/07/03 03:25:22;;;;;;;8.20;2.55;;;;;;;25.61;56.72;98346.00;2059186;28;20081;-53
2023/07/03 03:26:22;;;;;;;4.03;2.63;;;;;;;25.64;56.77;98346.31;2059748;28;20084;-51
2023/07/03 03:27:24;;;;;;;6.57;2.70;;;;;;;25.66;56.21;98346.06;2062003;28;20054;-47
2023/07/03 03:28:26;;;;;;;5.95;2.78;;;;;;;25.68;56.65;98353.94;2061074;28;20061;-50
2023/07/03 03:29:28;;;;;;;4.30;2.60;;;;;;;25.66;56.72;98356.94;2062323;28;20198;-51
2023/07/03 03:30:30;;;;;;;6.28;2.60;;;;;;;25.63;56.62;98355.56;2061339;28;20050;-53
2023/07/03 03:31:32;;;;;;;4.50;2.72;;;;;;;25.59;56.56;98354.41;2063307;28;20137;-56
2023/07/03 03:32:32;;;;;;;2.90;2.47;;;;;;;25.57;56.68;98358.44;2058786;28;21334;-52
2023/07/03 03:33:34;;;;;;;5.13;2.50;;;;;;;25.57;57.07;98359.25;2059442;28;20050;-53
2023/07/03 03:34:35;;;;;;;3.35;2.20;;;;;;;25.59;57.04;98357.13;2063867;28;20088;-48
2023/07/03 03:35:37;;;;;;;5.88;3.13;;;;;;;25.59;56.62;98348.97;2059897;28;20046;-48
2023/07/03 03:36:39;;;;;;;5.40;2.90;;;;;;;25.62;56.72;98353.88;2065841;28;21944;-49
2023/07/03 03:37:40;;;;;;;6.47;3.17;;;;;;;25.63;56.44;98352.84;2062274;28;20046;-50
2023/07/03 03:38:42;;;;;;;5.43;3.13;;;;;;;25.64;56.23;98351.75;2061166;28;20056;-48
2023/07/03 03:39:43;;;;;;;4.40;2.80;;;;;;;25.72;56.47;98355.09;2062346;28;20054;-48
2023/07/03 03:40:55;;;;;;;9.43;3.47;;;;;;;25.72;56.47;98355.91;2062351;28;20053;-50
2023/07/03 03:41:55;;;;;;;5.18;2.58;;;;;;;25.72;56.13;98355.91;2061657;28;20061;-49
2023/07/03 03:42:57;;;;;;;5.10;3.05;;;;;;;25.76;56.42;98358.91;2061762;28;20181;-50
2023/07/03 03:43:59;;;;;;;4.38;2.45;;;;;;;25.75;55.97;98357.28;2063408;28;20516;-50
2023/07/03 03:45:01;;;;;;;5.82;3.10;;;;;;;25.69;56.56;98361.03;2062507;28;20096;-51
2023/07/03 03:46:02;;;;;;;7.07;2.28;;;;;;;25.68;56.24;98357.47;2060216;28;20065;-51
2023/07/03 03:47:05;;;;;;;5.13;2.50;;;;;;;25.67;56.24;98364.00;2061975;28;20053;-51
2023/07/03 03:48:06;;;;;;;6.75;2.17;;;;;;;25.61;56.37;98354.97;2058353;28;20405;-50
2023/07/03 03:49:10;;;;;;;3.33;2.40;;;;;;;25.58;56.95;98360.09;2062548;28;20060;-48
2023/07/03 03:50:11;;;;;;;5.53;2.92;;;;;;;25.56;56.88;98354.91;2063342;28;20049;-48
2023/07/03 03:51:13;;;;;;;4.28;3.33;;;;;;;25.50;56.95;98358.66;2059999;28;20085;-51
2023/07/03 03:52:14;;;;;;;5.03;3.03;;;;;;;25.48;56.73;98352.66;2060857;28;20049;-51
2023/07/03 03:53:16;;;;;;;4.57;2.75;;;;;;;25.46;56.88;98352.09;2060861;28;20276;-50
2023/07/03 03:54:17;;;;;;;4.72;2.72;;;;;;;25.45;56.90;98349.66;2061608;28;20077;-51
2023/07/03 03:55:19;;;;;;;7.60;3.15;;;;;;;25.54;56.58;98353.53;2061491;28;20060;-50
2023/07/03 03:56:20;;;;;;;7.90;2.55;;;;;;;25.62;56.34;98350.38;2061471;28;21961;-48
2023/07/03 03:57:21;;;;;;;3.15;2.13;;;;;;;25.71;55.94;98358.84;2062526;28;20049;-50
2023/07/03 03:58:22;;;;;;;5.53;2.95;;;;;;;25.70;56.14;98358.03;2060674;28;20074;-48
2023/07/03 03:59:25;;;;;;;3.70;2.35;;;;;;;25.69;56.41;98361.03;2061371;28;20728;-52
2023/07/03 04:00:26;;;;;;;5.13;2.67;;;;;;;25.63;56.13;98355.56;2060584;28;20085;-48
2023/07/03 04:01:28;;;;;;;4.88;2.70;;;;;;;25.60;56.43;98355.22;2059652;28;20566;-52
2023/07/03 04:02:29;;;;;;;5.75;2.72;;;;;;;25.60;56.76;98353.34;2062265;28;20404;-47
2023/07/03 04:03:31;;;;;;;5.00;2.75;;;;;;;25.60;56.46;98357.94;2060703;28;20148;-47
2023/07/03 04:04:32;;;;;;;6.18;3.13;;;;;;;25.56;56.53;98352.22;2060473;28;20161;-49
2023/07/03 04:05:34;;;;;;;6.20;2.60;;;;;;;25.60;56.21;98356.06;2057689;28;20578;-47
2023/07/03 04:06:37;;;;;;;7.55;2.95;;;;;;;25.65;56.18;98352.56;2060479;28;20119;-47
2023/07/03 04:07:39;;;;;;;7.43;2.65;;;;;;;25.68;56.32;98353.94;2059354;28;20046;-53
2023/07/03 04:08:40;;;;;;;5.90;3.00;;;;;;;25.71;56.21;98356.97;2062541;28;21502;-52
2023/07/03 04:09:42;;;;;;;4.22;2.75;;;;;;;25.74;56.19;98358.34;2060293;28;20050;-53
2023/07/03 04:10:43;;;;;;;5.43;3.10;;;;;;;25.77;56.35;98357.81;2060843;28;20060;-53
2023/07/03 04:11:45;;;;;;;4.00;2.35;;;;;;;25.78;56.26;98364.91;2062859;28;20079;-51
2023/07/03 04:12:46;;;;;;;4.22;2.63;;;;;;;25.80;55.84;98366.31;2061226;28;20691;-51
2023/07/03 04:13:48;;;;;;;4.85;2.45;;;;;;;25.82;55.74;98368.75;2063311;28;20136;-47
2023/07/03 04:14:51;;;;;;;4.13;2.40;;;;;;;25.83;56.00;98368.53;2060389;28;20050;-50
2023/07/03 04:16:01;;;;;;;4.82;2.58;;;;;;;25.83;56.12;98368.53;2060639;28;20058;-48
2023/07/03 04:17:02;;;;;;;4.13;2.38;;;;;;;25.82;56.02;98360.59;2062906;28;20141;-50
2023/07/03 04:18:04;;;;;;;3.92;2.83;;;;;;;25.82;56.06;98372.28;2063761;28;20483;-51
2023/07/03 04:19:05;;;;;;;4.50;2.53;;;;;;;25.85;55.60;98370.97;2061401;28;20642;-51
2023/07/03 04:20:11;;;;;;;4.22;2.35;;;;;;;25.85;56.03;98373.69;2060771;28;20135;-51
2023/07/03 04:21:12;;;;;;;3.35;2.20;;;;;;;25.85;55.66;98368.25;2057607;28;20042;-52
2023/07/03 04:22:13;;;;;;;4.63;2.72;;;;;;;25.88;55.49;98372.38;2061613;28;20136;-52
2023/07/03 04:23:15;;;;;;;4.38;2.92;;;;;;;25.88;55.63;98365.03;2061122;28;20209;-50
2023/07/03 04:24:17;;;;;;;3.47;2.50;;;;;;;25.89;55.55;98371.31;2061227;28;20042;-53
2023/07/03 04:25:18;;;;;;;4.32;2.20;;;;;;;25.89;55.60;98358.53;2059003;28;20050;-51
2023/07/03 04:26:20;;;;;;;7.25;2.58;;;;;;;25.91;55.68;98367.25;2061968;28;20046;-50
2023/07/03 04:27:21;;;;;;;4.80;2.58;;;;;;;25.92;55.45;98363.44;2060698;28;20524;-54
2023/07/03 04:28:24;;;;;;;4.82;2.53;;;;;;;25.93;55.63;98362.34;2060577;28;20046;-55
2023/07/03 04:29:24;;;;;;;4.60;2.38;;;;;;;25.93;55.80;98365.06;2060481;28;20049;-53
2023/07/03 04:30:28;;;;;;;4.25;2.25;;;;;;;25.94;55.28;98364.00;2061401;28;21572;-50
2023/07/03 04:31:31;;;;;;;3.45;2.53;;;;;;;25.94;55.53;98364.00;2058816;28;20049;-50
2023/07/03 04:32:33;;;;;;;4.50;2.30;;;;;;;25.94;55.75;98372.16;2060298;28;20042;-52
2023/07/03 04:33:33;;;;;;;3.78;2.60;;;;;;;25.94;55.74;98371.34;2064217;28;20045;-54
2023/07/03 04:34:35;;;;;;;4.60;2.30;;;;;;;25.95;55.64;98375.69;2063996;28;20045;-53
2023/07/03 04:35:36;;;;;;;4.07;2.40;;;;;;;25.96;55.19;98375.44;2062413;28;20050;-50
2023/07/03 04:36:38;;;;;;;4.32;2.08;;;;;;;25.96;55.66;98370.00;2059655;28;20045;-52
2023/07/03 04:37:39;;;;;;;6.75;3.00;;;;;;;25.96;55.29;98367.28;2058894;28;20145;-52
2023/07/03 04:38:41;;;;;;;3.40;2.20;;;;;;;25.96;55.56;98372.72;2059469;28;20081;-47
2023/07/03 04:39:43;;;;;;;5.15;2.50;;;;;;;25.96;55.74;98374.63;2058416;28;20416;-51
2023/07/03 04:40:45;;;;;;;3.47;2.13;;;;;;;25.96;55.39;98367.28;2062238;28;20737;-51
2023/07/03 04:41:46;;;;;;;3.13;2.33;;;;;;;25.97;55.13;98368.94;2061271;28;20050;-48
2023/07/03 04:42:48;;;;;;;3.63;2.65;;;;;;;25.98;55.21;98373.28;2062166;28;20048;-48
2023/07/03 04:43:51;;;;;;;5.75;2.60;;;;;;;25.98;55.12;98375.19;2059990;28;20123;-52
2023/07/03 04:44:53;;;;;;;7.25;2.53;;;;;;;25.98;55.55;98376.00;2061771;28;20492;-52
2023/07/03 04:45:56;;;;;;;4.20;2.53;;;;;;;26.00;55.24;98371.13;2063006;28;20061;-53
2023/07/03 04:46:58;;;;;;;4.07;2.45;;;;;;;26.01;55.03;98375.47;2058309;28;20053;-49
2023/07/03 04:47:58;;;;;;;5.45;2.30;;;;;;;26.02;55.70;98376.28;2061233;28;20095;-52
2023/07/03 04:49:03;;;;;;;3.80;2.17;;;;;;;26.00;55.64;98384.72;2062873;28;20670;-50
2023/07/03 04:50:05;;;;;;;3.88;2.60;;;;;;;25.99;55.14;98376.81;2061333;28;20750;-50
2023/07/03 04:51:08;;;;;;;3.15;2.00;;;;;;;26.00;55.16;98382.00;2061444;28;20052;-53
2023/07/03 04:52:09;;;;;;;5.35;2.80;;;;;;;26.01;54.96;98382.81;2061850;28;20050;-50
2023/07/03 04:53:11;;;;;;;6.15;2.42;;;;;;;26.02;55.24;98382.56;2061505;28;20057;-51
2023/07/03 04:54:12;;;;;;;3.70;2.42;;;;;;;26.01;55.75;98382.81;2060982;28;20050;-50
2023/07/03 04:55:14;;;;;;;3.33;2.55;;;;;;;25.93;55.99;98378.66;2057434;28;20726;-50